Lawrenceville, GA

8:36 AM EDT on August 30, 2015 (GMT -0400)
Gloster | | Change Station
CLOSE
Current Station
Personal Weather Station
Location: Lawrenceville, GA
Elevation: 997 ft
Nearby Weather Stations

Elev 997 ft 33.92 °N, 84.07 °W | Updated 2 minutes ago

Overcast
Overcast
70.5 °F
Feels Like 70.5 °F
N
0.0
Wind Variable Wind from ENE

Today
High -- | Low -- °F
--% Chance of Precip.
Yesterday
High -- | Low -- °F
Precip. -- in
7:08 AM 8:04 PM
Full, 99% visible
Pressure 30.07 in
Visibility 10.0 miles
Clouds Few 3000 ft
Scattered Clouds 6000 ft
Overcast 9000 ft
Dew Point 70 °F
Humidity 98%
Rainfall 0.00 in
Snow Depth Not available.
UV 0 out of 12
Pollen 6.60 out of 12
Air Quality Not available.
Flu Activity Not available.
METAR KPDK 301153Z 00000KT 10SM FEW030 SCT060 OVC090 22/18 A3011 RMK AO2 SLP183 T02170178 10228 20217 53001
Pressure 30.07 in
Visibility 10.0 miles
Clouds Few 3000 ft
Scattered Clouds 6000 ft
Overcast 9000 ft
Dew Point 70 °F
Humidity 98%
Rainfall 0.00 in
Snow Depth Not available.
UV 0 out of 12
Pollen 6.60 out of 12
Air Quality Not available.
Flu Activity Not available.
METAR KPDK 301153Z 00000KT 10SM FEW030 SCT060 OVC090 22/18 A3011 RMK AO2 SLP183 T02170178 10228 20217 53001

10-Day Weather Forecast

×

Almanac

Astronomy

Aug. 30, 2015 Rise Set
Actual Time
Civil Twilight
Nautical Twilight
Astronomical Twilight
Moon
Length of Visible Light
Length of Day
Tomorrow will be .
, % of the Moon is Illuminated

Today's Extremes

State Highs State Lows

Community

WunderPhotos

Upload Photos

1,850,940 photos uploaded!

WunderBlogs® & News

Nearby

Air Quality

  Air Quality AQ Index Pollutant
Not available.

Snow Depth

Station Depth Elevation

Earthquake Activity

City Distance Mag. Time & Date
Minimum magnitude displayed is 2.5.

Coastal Water Temperatures

Place Temperature

Stations

Nearby Weather Stations

Station Location Temp. Windchill Dew Point Humidity Wind Precip. Elev Updated Type